sensor_id;sensor_type;location;lat;lon;timestamp;P1;durP1;ratioP1;P2;durP2;ratioP2
7919;SDS011;18778;47.610;9.776;2023-06-26T00:01:23;8.97;;;8.07;;
7919;SDS011;18778;47.610;9.776;2023-06-26T00:03:48;8.70;;;7.80;;
7919;SDS011;18778;47.610;9.776;2023-06-26T00:06:14;9.07;;;8.17;;
7919;SDS011;18778;47.610;9.776;2023-06-26T00:08:40;8.40;;;7.60;;
7919;SDS011;18778;47.610;9.776;2023-06-26T00:11:05;8.70;;;7.80;;
7919;SDS011;18778;47.610;9.776;2023-06-26T00:13:31;8.70;;;7.90;;
7919;SDS011;18778;47.610;9.776;2023-06-26T00:15:57;8.67;;;7.87;;
7919;SDS011;18778;47.610;9.776;2023-06-26T00:18:22;8.80;;;7.87;;
7919;SDS011;18778;47.610;9.776;2023-06-26T00:20:48;10.00;;;7.70;;
7919;SDS011;18778;47.610;9.776;2023-06-26T00:23:15;8.57;;;7.77;;
7919;SDS011;18778;47.610;9.776;2023-06-26T00:25:42;8.80;;;7.90;;
7919;SDS011;18778;47.610;9.776;2023-06-26T00:28:08;8.23;;;7.37;;
7919;SDS011;18778;47.610;9.776;2023-06-26T00:30:34;7.97;;;7.13;;
7919;SDS011;18778;47.610;9.776;2023-06-26T00:33:00;7.77;;;6.83;;
7919;SDS011;18778;47.610;9.776;2023-06-26T00:35:26;7.90;;;7.10;;
7919;SDS011;18778;47.610;9.776;2023-06-26T00:37:52;8.10;;;7.27;;
7919;SDS011;18778;47.610;9.776;2023-06-26T00:40:17;8.57;;;7.77;;
7919;SDS011;18778;47.610;9.776;2023-06-26T00:42:43;8.77;;;7.63;;
7919;SDS011;18778;47.610;9.776;2023-06-26T00:45:09;8.67;;;7.73;;
7919;SDS011;18778;47.610;9.776;2023-06-26T00:47:34;8.87;;;7.97;;
7919;SDS011;18778;47.610;9.776;2023-06-26T00:50:00;9.57;;;7.67;;
7919;SDS011;18778;47.610;9.776;2023-06-26T00:52:26;8.23;;;7.43;;
7919;SDS011;18778;47.610;9.776;2023-06-26T00:54:52;7.83;;;7.13;;
7919;SDS011;18778;47.610;9.776;2023-06-26T00:57:18;8.60;;;7.07;;
7919;SDS011;18778;47.610;9.776;2023-06-26T00:59:43;8.43;;;7.60;;
7919;SDS011;18778;47.610;9.776;2023-06-26T01:02:09;11.23;;;8.23;;
7919;SDS011;18778;47.610;9.776;2023-06-26T01:04:34;11.17;;;8.23;;
7919;SDS011;18778;47.610;9.776;2023-06-26T01:07:01;9.80;;;8.20;;
7919;SDS011;18778;47.610;9.776;2023-06-26T01:09:27;10.60;;;8.43;;
7919;SDS011;18778;47.610;9.776;2023-06-26T01:11:54;8.60;;;7.77;;
7919;SDS011;18778;47.610;9.776;2023-06-26T01:14:20;10.33;;;7.93;;
7919;SDS011;18778;47.610;9.776;2023-06-26T01:16:46;10.30;;;8.20;;
7919;SDS011;18778;47.610;9.776;2023-06-26T01:19:18;8.20;;;7.40;;
7919;SDS011;18778;47.610;9.776;2023-06-26T01:21:51;8.87;;;8.07;;
7919;SDS011;18778;47.610;9.776;2023-06-26T01:24:23;9.93;;;8.87;;
7919;SDS011;18778;47.610;9.776;2023-06-26T01:26:52;9.40;;;8.40;;
7919;SDS011;18778;47.610;9.776;2023-06-26T01:29:18;9.73;;;8.67;;
7919;SDS011;18778;47.610;9.776;2023-06-26T01:31:45;9.53;;;8.53;;
7919;SDS011;18778;47.610;9.776;2023-06-26T01:34:17;9.37;;;8.47;;
7919;SDS011;18778;47.610;9.776;2023-06-26T01:36:46;10.03;;;8.93;;
7919;SDS011;18778;47.610;9.776;2023-06-26T01:39:14;8.90;;;8.00;;
7919;SDS011;18778;47.610;9.776;2023-06-26T01:41:41;9.63;;;8.63;;
7919;SDS011;18778;47.610;9.776;2023-06-26T01:44:11;9.60;;;8.57;;
7919;SDS011;18778;47.610;9.776;2023-06-26T01:52:19;9.13;;;8.20;;
7919;SDS011;18778;47.610;9.776;2023-06-26T01:57:45;10.17;;;9.03;;
7919;SDS011;18778;47.610;9.776;2023-06-26T02:00:13;8.43;;;7.53;;
7919;SDS011;18778;47.610;9.776;2023-06-26T02:02:42;8.57;;;7.67;;
7919;SDS011;18778;47.610;9.776;2023-06-26T02:05:09;9.00;;;8.10;;
7919;SDS011;18778;47.610;9.776;2023-06-26T02:07:34;10.37;;;8.47;;
7919;SDS011;18778;47.610;9.776;2023-06-26T02:10:00;9.13;;;8.23;;
7919;SDS011;18778;47.610;9.776;2023-06-26T02:12:26;9.57;;;8.27;;
7919;SDS011;18778;47.610;9.776;2023-06-26T02:14:51;10.83;;;8.30;;
7919;SDS011;18778;47.610;9.776;2023-06-26T02:17:17;10.13;;;8.57;;
7919;SDS011;18778;47.610;9.776;2023-06-26T02:19:42;8.87;;;8.00;;
7919;SDS011;18778;47.610;9.776;2023-06-26T02:22:12;9.27;;;8.33;;
7919;SDS011;18778;47.610;9.776;2023-06-26T02:24:39;9.93;;;8.73;;
7919;SDS011;18778;47.610;9.776;2023-06-26T02:27:04;9.63;;;8.63;;
7919;SDS011;18778;47.610;9.776;2023-06-26T02:29:30;11.10;;;8.90;;
7919;SDS011;18778;47.610;9.776;2023-06-26T02:31:55;9.30;;;8.30;;
7919;SDS011;18778;47.610;9.776;2023-06-26T02:34:21;10.27;;;7.97;;
7919;SDS011;18778;47.610;9.776;2023-06-26T02:36:46;10.43;;;8.57;;
7919;SDS011;18778;47.610;9.776;2023-06-26T02:39:12;10.03;;;7.87;;
7919;SDS011;18778;47.610;9.776;2023-06-26T02:41:39;9.70;;;8.70;;
7919;SDS011;18778;47.610;9.776;2023-06-26T02:44:04;11.63;;;8.40;;
7919;SDS011;18778;47.610;9.776;2023-06-26T02:46:31;9.27;;;8.37;;
7919;SDS011;18778;47.610;9.776;2023-06-26T02:48:56;9.47;;;8.20;;
7919;SDS011;18778;47.610;9.776;2023-06-26T02:51:22;10.07;;;8.67;;
7919;SDS011;18778;47.610;9.776;2023-06-26T02:53:47;8.70;;;7.80;;
7919;SDS011;18778;47.610;9.776;2023-06-26T02:56:13;11.13;;;8.23;;
7919;SDS011;18778;47.610;9.776;2023-06-26T02:58:38;9.20;;;7.63;;
7919;SDS011;18778;47.610;9.776;2023-06-26T03:01:04;9.00;;;8.10;;
7919;SDS011;18778;47.610;9.776;2023-06-26T03:03:29;9.63;;;8.63;;
7919;SDS011;18778;47.610;9.776;2023-06-26T03:05:55;10.13;;;8.67;;
7919;SDS011;18778;47.610;9.776;2023-06-26T03:08:21;10.03;;;8.70;;
7919;SDS011;18778;47.610;9.776;2023-06-26T03:10:47;9.17;;;8.27;;
7919;SDS011;18778;47.610;9.776;2023-06-26T03:13:13;11.43;;;8.43;;
7919;SDS011;18778;47.610;9.776;2023-06-26T03:15:38;9.07;;;8.17;;
7919;SDS011;18778;47.610;9.776;2023-06-26T03:18:04;9.03;;;8.13;;
7919;SDS011;18778;47.610;9.776;2023-06-26T03:20:29;10.13;;;8.70;;
7919;SDS011;18778;47.610;9.776;2023-06-26T03:22:55;8.77;;;7.87;;
7919;SDS011;18778;47.610;9.776;2023-06-26T03:25:20;10.03;;;8.60;;
7919;SDS011;18778;47.610;9.776;2023-06-26T03:27:46;8.50;;;7.50;;
7919;SDS011;18778;47.610;9.776;2023-06-26T03:30:12;9.80;;;8.47;;
7919;SDS011;18778;47.610;9.776;2023-06-26T03:32:38;10.00;;;8.00;;
7919;SDS011;18778;47.610;9.776;2023-06-26T03:35:03;9.17;;;8.10;;
7919;SDS011;18778;47.610;9.776;2023-06-26T03:37:29;8.50;;;7.60;;
7919;SDS011;18778;47.610;9.776;2023-06-26T03:39:55;9.43;;;7.90;;
7919;SDS011;18778;47.610;9.776;2023-06-26T03:42:20;9.10;;;8.20;;
7919;SDS011;18778;47.610;9.776;2023-06-26T03:44:46;8.50;;;7.70;;
7919;SDS011;18778;47.610;9.776;2023-06-26T03:47:11;8.80;;;7.90;;
7919;SDS011;18778;47.610;9.776;2023-06-26T03:49:37;8.83;;;7.93;;
7919;SDS011;18778;47.610;9.776;2023-06-26T03:52:02;8.73;;;7.93;;
7919;SDS011;18778;47.610;9.776;2023-06-26T03:54:28;9.73;;;7.87;;
7919;SDS011;18778;47.610;9.776;2023-06-26T03:56:54;11.03;;;8.30;;
7919;SDS011;18778;47.610;9.776;2023-06-26T03:59:19;10.37;;;8.10;;
7919;SDS011;18778;47.610;9.776;2023-06-26T04:01:45;9.50;;;8.20;;
7919;SDS011;18778;47.610;9.776;2023-06-26T04:04:11;8.83;;;7.93;;
7919;SDS011;18778;47.610;9.776;2023-06-26T04:06:36;9.47;;;8.57;;
7919;SDS011;18778;47.610;9.776;2023-06-26T04:09:02;11.63;;;8.20;;
7919;SDS011;18778;47.610;9.776;2023-06-26T04:11:28;11.37;;;8.50;;
7919;SDS011;18778;47.610;9.776;2023-06-26T04:13:54;8.87;;;7.70;;
7919;SDS011;18778;47.610;9.776;2023-06-26T04:16:20;8.70;;;7.80;;
7919;SDS011;18778;47.610;9.776;2023-06-26T04:18:46;8.40;;;7.60;;
7919;SDS011;18778;47.610;9.776;2023-06-26T04:21:12;8.80;;;7.30;;
7919;SDS011;18778;47.610;9.776;2023-06-26T04:23:38;9.10;;;7.20;;
7919;SDS011;18778;47.610;9.776;2023-06-26T04:26:05;8.60;;;7.70;;
7919;SDS011;18778;47.610;9.776;2023-06-26T04:28:32;8.60;;;7.70;;
7919;SDS011;18778;47.610;9.776;2023-06-26T04:30:58;8.30;;;7.40;;
7919;SDS011;18778;47.610;9.776;2023-06-26T04:33:24;9.60;;;7.63;;
7919;SDS011;18778;47.610;9.776;2023-06-26T04:35:51;8.43;;;7.53;;
7919;SDS011;18778;47.610;9.776;2023-06-26T04:38:17;11.00;;;7.63;;
7919;SDS011;18778;47.610;9.776;2023-06-26T04:40:43;9.37;;;7.50;;
7919;SDS011;18778;47.610;9.776;2023-06-26T04:43:09;8.30;;;7.40;;
7919;SDS011;18778;47.610;9.776;2023-06-26T04:45:34;9.30;;;7.83;;
7919;SDS011;18778;47.610;9.776;2023-06-26T04:48:00;8.67;;;7.50;;
7919;SDS011;18778;47.610;9.776;2023-06-26T04:50:26;8.20;;;7.47;;
7919;SDS011;18778;47.610;9.776;2023-06-26T04:52:53;8.50;;;7.63;;
7919;SDS011;18778;47.610;9.776;2023-06-26T04:55:19;9.20;;;8.27;;
7919;SDS011;18778;47.610;9.776;2023-06-26T04:57:46;8.30;;;7.50;;
7919;SDS011;18778;47.610;9.776;2023-06-26T05:00:12;9.43;;;7.40;;
7919;SDS011;18778;47.610;9.776;2023-06-26T05:02:39;11.00;;;7.97;;
7919;SDS011;18778;47.610;9.776;2023-06-26T05:05:04;8.80;;;7.90;;
7919;SDS011;18778;47.610;9.776;2023-06-26T05:07:30;9.53;;;7.63;;
7919;SDS011;18778;47.610;9.776;2023-06-26T05:09:56;8.73;;;7.63;;
7919;SDS011;18778;47.610;9.776;2023-06-26T05:12:21;10.00;;;7.90;;
7919;SDS011;18778;47.610;9.776;2023-06-26T05:14:47;10.00;;;7.90;;
7919;SDS011;18778;47.610;9.776;2023-06-26T05:17:16;8.03;;;7.33;;
7919;SDS011;18778;47.610;9.776;2023-06-26T05:19:41;8.53;;;7.73;;
7919;SDS011;18778;47.610;9.776;2023-06-26T05:22:07;10.30;;;8.00;;
7919;SDS011;18778;47.610;9.776;2023-06-26T05:24:37;8.40;;;7.60;;
7919;SDS011;18778;47.610;9.776;2023-06-26T05:27:03;9.17;;;7.57;;
7919;SDS011;18778;47.610;9.776;2023-06-26T05:29:30;8.20;;;7.40;;
7919;SDS011;18778;47.610;9.776;2023-06-26T05:31:56;8.80;;;7.73;;
7919;SDS011;18778;47.610;9.776;2023-06-26T05:34:22;7.60;;;6.90;;
7919;SDS011;18778;47.610;9.776;2023-06-26T05:36:52;10.37;;;7.67;;
7919;SDS011;18778;47.610;9.776;2023-06-26T05:39:22;9.97;;;7.37;;
7919;SDS011;18778;47.610;9.776;2023-06-26T05:41:49;8.30;;;7.50;;
7919;SDS011;18778;47.610;9.776;2023-06-26T05:44:15;8.43;;;7.60;;
7919;SDS011;18778;47.610;9.776;2023-06-26T05:46:41;8.57;;;7.67;;
7919;SDS011;18778;47.610;9.776;2023-06-26T05:49:06;8.70;;;7.90;;
7919;SDS011;18778;47.610;9.776;2023-06-26T05:51:32;9.70;;;7.83;;
7919;SDS011;18778;47.610;9.776;2023-06-26T05:53:58;9.67;;;7.20;;
7919;SDS011;18778;47.610;9.776;2023-06-26T05:56:24;8.73;;;7.63;;
7919;SDS011;18778;47.610;9.776;2023-06-26T05:58:49;8.00;;;7.20;;
7919;SDS011;18778;47.610;9.776;2023-06-26T06:01:17;8.87;;;6.50;;
7919;SDS011;18778;47.610;9.776;2023-06-26T06:03:42;7.47;;;6.77;;
7919;SDS011;18778;47.610;9.776;2023-06-26T06:06:08;9.93;;;6.77;;
7919;SDS011;18778;47.610;9.776;2023-06-26T06:08:33;7.60;;;6.80;;
7919;SDS011;18778;47.610;9.776;2023-06-26T06:10:59;7.70;;;7.10;;
7919;SDS011;18778;47.610;9.776;2023-06-26T06:13:25;7.80;;;7.10;;
7919;SDS011;18778;47.610;9.776;2023-06-26T06:15:54;7.87;;;7.17;;
7919;SDS011;18778;47.610;9.776;2023-06-26T06:18:20;8.47;;;7.13;;
7919;SDS011;18778;47.610;9.776;2023-06-26T06:20:46;9.43;;;6.97;;
7919;SDS011;18778;47.610;9.776;2023-06-26T06:23:11;7.50;;;6.90;;
7919;SDS011;18778;47.610;9.776;2023-06-26T06:25:37;8.07;;;7.20;;
7919;SDS011;18778;47.610;9.776;2023-06-26T06:28:04;9.77;;;7.20;;
7919;SDS011;18778;47.610;9.776;2023-06-26T06:30:30;7.83;;;6.73;;
7919;SDS011;18778;47.610;9.776;2023-06-26T06:32:55;12.43;;;6.90;;
7919;SDS011;18778;47.610;9.776;2023-06-26T06:35:21;7.37;;;6.67;;
7919;SDS011;18778;47.610;9.776;2023-06-26T06:37:47;6.90;;;6.30;;
7919;SDS011;18778;47.610;9.776;2023-06-26T06:40:13;7.73;;;6.93;;
7919;SDS011;18778;47.610;9.776;2023-06-26T06:42:39;9.40;;;7.10;;
7919;SDS011;18778;47.610;9.776;2023-06-26T06:45:05;7.93;;;7.10;;
7919;SDS011;18778;47.610;9.776;2023-06-26T06:47:31;10.23;;;6.77;;
7919;SDS011;18778;47.610;9.776;2023-06-26T06:49:57;9.60;;;7.57;;
7919;SDS011;18778;47.610;9.776;2023-06-26T06:52:23;9.30;;;7.80;;
7919;SDS011;18778;47.610;9.776;2023-06-26T06:54:53;8.00;;;7.20;;
7919;SDS011;18778;47.610;9.776;2023-06-26T06:57:22;7.57;;;6.87;;
7919;SDS011;18778;47.610;9.776;2023-06-26T06:59:48;7.60;;;6.83;;
7919;SDS011;18778;47.610;9.776;2023-06-26T07:02:14;9.03;;;7.20;;
7919;SDS011;18778;47.610;9.776;2023-06-26T07:04:41;9.40;;;6.97;;
7919;SDS011;18778;47.610;9.776;2023-06-26T07:07:06;9.50;;;6.90;;
7919;SDS011;18778;47.610;9.776;2023-06-26T07:09:33;7.53;;;6.73;;
7919;SDS011;18778;47.610;9.776;2023-06-26T07:11:59;7.70;;;7.00;;
7919;SDS011;18778;47.610;9.776;2023-06-26T07:14:25;7.53;;;6.83;;
7919;SDS011;18778;47.610;9.776;2023-06-26T07:16:50;7.87;;;7.17;;
7919;SDS011;18778;47.610;9.776;2023-06-26T07:19:16;8.10;;;7.30;;
7919;SDS011;18778;47.610;9.776;2023-06-26T07:21:42;8.83;;;7.10;;
7919;SDS011;18778;47.610;9.776;2023-06-26T07:24:09;9.67;;;6.97;;
7919;SDS011;18778;47.610;9.776;2023-06-26T07:26:35;7.07;;;6.20;;
7919;SDS011;18778;47.610;9.776;2023-06-26T07:29:03;8.20;;;6.20;;
7919;SDS011;18778;47.610;9.776;2023-06-26T07:31:30;6.93;;;6.33;;
7919;SDS011;18778;47.610;9.776;2023-06-26T07:33:55;7.60;;;6.80;;
7919;SDS011;18778;47.610;9.776;2023-06-26T07:36:21;7.67;;;6.60;;
7919;SDS011;18778;47.610;9.776;2023-06-26T07:38:47;9.37;;;6.23;;
7919;SDS011;18778;47.610;9.776;2023-06-26T07:41:13;7.77;;;6.33;;
7919;SDS011;18778;47.610;9.776;2023-06-26T07:43:38;7.93;;;7.13;;
7919;SDS011;18778;47.610;9.776;2023-06-26T07:46:04;7.33;;;6.60;;
7919;SDS011;18778;47.610;9.776;2023-06-26T07:48:30;9.23;;;6.67;;
7919;SDS011;18778;47.610;9.776;2023-06-26T07:50:55;7.40;;;6.53;;
7919;SDS011;18778;47.610;9.776;2023-06-26T07:53:21;11.50;;;7.47;;
7919;SDS011;18778;47.610;9.776;2023-06-26T07:55:46;6.97;;;6.37;;
7919;SDS011;18778;47.610;9.776;2023-06-26T07:58:12;7.20;;;6.50;;
7919;SDS011;18778;47.610;9.776;2023-06-26T08:00:38;7.57;;;6.87;;
7919;SDS011;18778;47.610;9.776;2023-06-26T08:03:03;8.60;;;6.80;;
7919;SDS011;18778;47.610;9.776;2023-06-26T08:05:29;7.27;;;6.57;;
7919;SDS011;18778;47.610;9.776;2023-06-26T08:07:54;9.77;;;6.97;;
7919;SDS011;18778;47.610;9.776;2023-06-26T08:10:20;7.27;;;6.30;;
7919;SDS011;18778;47.610;9.776;2023-06-26T08:12:46;7.23;;;6.53;;
7919;SDS011;18778;47.610;9.776;2023-06-26T08:15:12;7.90;;;6.23;;
7919;SDS011;18778;47.610;9.776;2023-06-26T08:17:37;7.07;;;6.40;;
7919;SDS011;18778;47.610;9.776;2023-06-26T08:20:04;7.90;;;7.10;;
7919;SDS011;18778;47.610;9.776;2023-06-26T08:22:32;7.83;;;7.03;;
7919;SDS011;18778;47.610;9.776;2023-06-26T08:24:58;7.53;;;6.93;;
7919;SDS011;18778;47.610;9.776;2023-06-26T08:27:24;7.93;;;6.83;;
7919;SDS011;18778;47.610;9.776;2023-06-26T08:29:50;8.73;;;6.20;;
7919;SDS011;18778;47.610;9.776;2023-06-26T08:32:16;7.57;;;6.87;;
7919;SDS011;18778;47.610;9.776;2023-06-26T08:34:41;7.27;;;6.63;;
7919;SDS011;18778;47.610;9.776;2023-06-26T08:37:07;7.47;;;6.77;;
7919;SDS011;18778;47.610;9.776;2023-06-26T08:39:34;8.95;;;6.57;;
7919;SDS011;18778;47.610;9.776;2023-06-26T08:42:00;7.23;;;6.63;;
7919;SDS011;18778;47.610;9.776;2023-06-26T08:44:25;8.20;;;7.00;;
7919;SDS011;18778;47.610;9.776;2023-06-26T08:46:51;9.30;;;7.00;;
7919;SDS011;18778;47.610;9.776;2023-06-26T08:52:21;7.57;;;6.78;;
7919;SDS011;18778;47.610;9.776;2023-06-26T08:54:54;9.27;;;7.40;;
7919;SDS011;18778;47.610;9.776;2023-06-26T08:57:23;7.50;;;6.88;;
7919;SDS011;18778;47.610;9.776;2023-06-26T08:59:49;7.30;;;6.60;;
7919;SDS011;18778;47.610;9.776;2023-06-26T09:02:16;12.52;;;6.95;;
7919;SDS011;18778;47.610;9.776;2023-06-26T09:04:42;7.88;;;6.60;;
7919;SDS011;18778;47.610;9.776;2023-06-26T09:07:07;8.80;;;6.78;;
7919;SDS011;18778;47.610;9.776;2023-06-26T09:09:33;8.75;;;7.00;;
7919;SDS011;18778;47.610;9.776;2023-06-26T09:12:01;8.23;;;7.00;;
7919;SDS011;18778;47.610;9.776;2023-06-26T09:14:27;7.68;;;6.97;;
7919;SDS011;18778;47.610;9.776;2023-06-26T09:16:54;7.63;;;6.20;;
7919;SDS011;18778;47.610;9.776;2023-06-26T09:19:20;9.65;;;6.80;;
7919;SDS011;18778;47.610;9.776;2023-06-26T09:21:46;7.97;;;6.80;;
7919;SDS011;18778;47.610;9.776;2023-06-26T09:24:15;7.60;;;6.90;;
7919;SDS011;18778;47.610;9.776;2023-06-26T09:26:41;6.90;;;6.30;;
7919;SDS011;18778;47.610;9.776;2023-06-26T09:29:08;7.97;;;7.10;;
7919;SDS011;18778;47.610;9.776;2023-06-26T09:31:38;7.18;;;6.47;;
7919;SDS011;18778;47.610;9.776;2023-06-26T09:34:04;8.88;;;6.20;;
7919;SDS011;18778;47.610;9.776;2023-06-26T09:36:31;7.63;;;6.82;;
7919;SDS011;18778;47.610;9.776;2023-06-26T09:39:01;6.90;;;5.95;;
7919;SDS011;18778;47.610;9.776;2023-06-26T09:41:28;7.10;;;6.47;;
7919;SDS011;18778;47.610;9.776;2023-06-26T09:43:53;6.82;;;6.05;;
7919;SDS011;18778;47.610;9.776;2023-06-26T09:46:24;7.00;;;6.40;;
7919;SDS011;18778;47.610;9.776;2023-06-26T09:51:22;7.60;;;6.90;;
7919;SDS011;18778;47.610;9.776;2023-06-26T09:53:48;7.30;;;6.13;;
7919;SDS011;18778;47.610;9.776;2023-06-26T09:56:16;7.63;;;6.93;;
7919;SDS011;18778;47.610;9.776;2023-06-26T09:58:43;7.15;;;6.53;;
7919;SDS011;18778;47.610;9.776;2023-06-26T10:01:09;8.55;;;6.68;;
7919;SDS011;18778;47.610;9.776;2023-06-26T10:03:35;7.03;;;6.07;;
7919;SDS011;18778;47.610;9.776;2023-06-26T10:06:01;8.95;;;7.03;;
7919;SDS011;18778;47.610;9.776;2023-06-26T10:08:28;7.40;;;6.68;;
7919;SDS011;18778;47.610;9.776;2023-06-26T10:10:54;7.30;;;6.60;;
7919;SDS011;18778;47.610;9.776;2023-06-26T10:13:23;7.07;;;6.43;;
7919;SDS011;18778;47.610;9.776;2023-06-26T10:15:55;6.75;;;6.05;;
7919;SDS011;18778;47.610;9.776;2023-06-26T10:18:25;7.75;;;6.18;;
7919;SDS011;18778;47.610;9.776;2023-06-26T10:20:53;7.35;;;6.65;;
7919;SDS011;18778;47.610;9.776;2023-06-26T10:23:21;7.20;;;6.20;;
7919;SDS011;18778;47.610;9.776;2023-06-26T10:25:48;7.07;;;6.30;;
7919;SDS011;18778;47.610;9.776;2023-06-26T10:28:19;7.15;;;6.55;;
7919;SDS011;18778;47.610;9.776;2023-06-26T10:30:55;7.47;;;6.82;;
7919;SDS011;18778;47.610;9.776;2023-06-26T10:33:38;7.65;;;6.88;;
7919;SDS011;18778;47.610;9.776;2023-06-26T10:36:30;7.60;;;6.90;;
7919;SDS011;18778;47.610;9.776;2023-06-26T10:45:09;7.97;;;6.60;;
7919;SDS011;18778;47.610;9.776;2023-06-26T10:47:36;7.53;;;6.80;;
7919;SDS011;18778;47.610;9.776;2023-06-26T10:50:45;6.68;;;6.10;;
7919;SDS011;18778;47.610;9.776;2023-06-26T11:03:39;6.90;;;6.20;;
7919;SDS011;18778;47.610;9.776;2023-06-26T11:06:08;6.38;;;5.78;;
7919;SDS011;18778;47.610;9.776;2023-06-26T11:08:43;7.10;;;6.50;;
7919;SDS011;18778;47.610;9.776;2023-06-26T11:11:15;7.05;;;6.35;;
7919;SDS011;18778;47.610;9.776;2023-06-26T11:13:51;6.80;;;5.88;;
7919;SDS011;18778;47.610;9.776;2023-06-26T11:16:17;6.60;;;5.93;;
7919;SDS011;18778;47.610;9.776;2023-06-26T11:18:44;8.52;;;6.05;;
7919;SDS011;18778;47.610;9.776;2023-06-26T11:21:11;7.30;;;5.78;;
7919;SDS011;18778;47.610;9.776;2023-06-26T11:23:39;6.47;;;5.88;;
7919;SDS011;18778;47.610;9.776;2023-06-26T11:28:50;6.53;;;5.93;;
7919;SDS011;18778;47.610;9.776;2023-06-26T11:31:32;6.32;;;5.72;;
7919;SDS011;18778;47.610;9.776;2023-06-26T11:33:59;6.47;;;5.93;;
7919;SDS011;18778;47.610;9.776;2023-06-26T11:36:27;6.10;;;5.55;;
7919;SDS011;18778;47.610;9.776;2023-06-26T11:38:58;7.57;;;5.93;;
7919;SDS011;18778;47.610;9.776;2023-06-26T11:41:28;6.18;;;5.57;;
7919;SDS011;18778;47.610;9.776;2023-06-26T11:43:59;6.47;;;5.97;;
7919;SDS011;18778;47.610;9.776;2023-06-26T11:46:27;6.50;;;5.95;;
7919;SDS011;18778;47.610;9.776;2023-06-26T11:48:53;6.78;;;5.70;;
7919;SDS011;18778;47.610;9.776;2023-06-26T11:51:19;6.70;;;5.95;;
7919;SDS011;18778;47.610;9.776;2023-06-26T11:53:46;6.40;;;5.80;;
7919;SDS011;18778;47.610;9.776;2023-06-26T11:56:16;5.97;;;5.47;;
7919;SDS011;18778;47.610;9.776;2023-06-26T12:01:37;5.80;;;5.28;;
7919;SDS011;18778;47.610;9.776;2023-06-26T12:04:08;9.77;;;6.00;;
7919;SDS011;18778;47.610;9.776;2023-06-26T12:06:36;6.10;;;5.50;;
7919;SDS011;18778;47.610;9.776;2023-06-26T12:09:05;6.47;;;5.40;;
7919;SDS011;18778;47.610;9.776;2023-06-26T12:11:38;7.55;;;5.93;;
7919;SDS011;18778;47.610;9.776;2023-06-26T12:14:07;6.88;;;6.13;;
7919;SDS011;18778;47.610;9.776;2023-06-26T12:16:34;6.15;;;5.63;;
7919;SDS011;18778;47.610;9.776;2023-06-26T12:19:00;6.20;;;5.70;;
7919;SDS011;18778;47.610;9.776;2023-06-26T12:21:28;6.22;;;5.63;;
7919;SDS011;18778;47.610;9.776;2023-06-26T12:24:00;7.18;;;5.80;;
7919;SDS011;18778;47.610;9.776;2023-06-26T12:26:29;6.25;;;5.65;;
7919;SDS011;18778;47.610;9.776;2023-06-26T12:29:05;5.97;;;5.47;;
7919;SDS011;18778;47.610;9.776;2023-06-26T12:31:32;5.80;;;5.30;;
7919;SDS011;18778;47.610;9.776;2023-06-26T12:33:58;6.72;;;6.13;;
7919;SDS011;18778;47.610;9.776;2023-06-26T12:36:25;6.70;;;5.35;;
7919;SDS011;18778;47.610;9.776;2023-06-26T12:38:52;6.05;;;5.47;;
7919;SDS011;18778;47.610;9.776;2023-06-26T12:41:18;7.65;;;6.00;;
7919;SDS011;18778;47.610;9.776;2023-06-26T12:43:45;6.05;;;5.45;;
7919;SDS011;18778;47.610;9.776;2023-06-26T12:46:11;8.13;;;6.05;;
7919;SDS011;18778;47.610;9.776;2023-06-26T12:48:42;7.40;;;5.78;;
7919;SDS011;18778;47.610;9.776;2023-06-26T12:51:14;6.13;;;5.63;;
7919;SDS011;18778;47.610;9.776;2023-06-26T12:53:41;6.07;;;5.57;;
7919;SDS011;18778;47.610;9.776;2023-06-26T12:56:07;5.80;;;5.30;;
7919;SDS011;18778;47.610;9.776;2023-06-26T12:58:34;6.47;;;5.88;;
7919;SDS011;18778;47.610;9.776;2023-06-26T13:01:02;7.03;;;5.78;;
7919;SDS011;18778;47.610;9.776;2023-06-26T13:03:29;7.47;;;5.75;;
7919;SDS011;18778;47.610;9.776;2023-06-26T13:05:54;6.03;;;5.53;;
7919;SDS011;18778;47.610;9.776;2023-06-26T13:08:20;8.18;;;6.30;;
7919;SDS011;18778;47.610;9.776;2023-06-26T13:10:46;6.32;;;5.70;;
7919;SDS011;18778;47.610;9.776;2023-06-26T13:13:14;6.68;;;6.03;;
7919;SDS011;18778;47.610;9.776;2023-06-26T13:15:40;6.65;;;6.15;;
7919;SDS011;18778;47.610;9.776;2023-06-26T13:18:06;6.43;;;5.82;;
7919;SDS011;18778;47.610;9.776;2023-06-26T13:20:32;8.20;;;5.97;;
7919;SDS011;18778;47.610;9.776;2023-06-26T13:22:58;8.10;;;6.07;;
7919;SDS011;18778;47.610;9.776;2023-06-26T13:25:24;7.03;;;6.32;;
7919;SDS011;18778;47.610;9.776;2023-06-26T13:27:50;7.35;;;5.95;;
7919;SDS011;18778;47.610;9.776;2023-06-26T13:30:16;7.03;;;5.70;;
7919;SDS011;18778;47.610;9.776;2023-06-26T13:32:42;7.50;;;5.68;;
7919;SDS011;18778;47.610;9.776;2023-06-26T13:35:09;6.63;;;6.00;;
7919;SDS011;18778;47.610;9.776;2023-06-26T13:37:35;5.82;;;5.32;;
7919;SDS011;18778;47.610;9.776;2023-06-26T13:40:02;6.38;;;5.75;;
7919;SDS011;18778;47.610;9.776;2023-06-26T13:42:28;10.20;;;5.90;;
7919;SDS011;18778;47.610;9.776;2023-06-26T13:44:55;6.45;;;5.90;;
7919;SDS011;18778;47.610;9.776;2023-06-26T13:47:21;6.15;;;5.55;;
7919;SDS011;18778;47.610;9.776;2023-06-26T13:49:47;8.63;;;5.72;;
7919;SDS011;18778;47.610;9.776;2023-06-26T13:52:13;8.32;;;6.05;;
7919;SDS011;18778;47.610;9.776;2023-06-26T13:54:39;6.10;;;5.60;;
7919;SDS011;18778;47.610;9.776;2023-06-26T13:57:08;6.55;;;5.95;;
7919;SDS011;18778;47.610;9.776;2023-06-26T13:59:36;6.10;;;5.50;;
7919;SDS011;18778;47.610;9.776;2023-06-26T14:02:04;6.45;;;5.53;;
7919;SDS011;18778;47.610;9.776;2023-06-26T14:04:31;7.05;;;5.70;;
7919;SDS011;18778;47.610;9.776;2023-06-26T14:07:05;8.25;;;6.32;;
7919;SDS011;18778;47.610;9.776;2023-06-26T14:09:32;8.55;;;5.72;;
7919;SDS011;18778;47.610;9.776;2023-06-26T14:11:58;7.00;;;5.57;;
7919;SDS011;18778;47.610;9.776;2023-06-26T14:14:24;7.40;;;5.53;;
7919;SDS011;18778;47.610;9.776;2023-06-26T14:16:50;6.07;;;5.47;;
7919;SDS011;18778;47.610;9.776;2023-06-26T14:19:16;6.07;;;5.57;;
7919;SDS011;18778;47.610;9.776;2023-06-26T14:21:42;6.47;;;5.88;;
7919;SDS011;18778;47.610;9.776;2023-06-26T14:24:08;6.45;;;5.88;;
7919;SDS011;18778;47.610;9.776;2023-06-26T14:26:34;8.70;;;6.18;;
7919;SDS011;18778;47.610;9.776;2023-06-26T14:29:01;6.45;;;5.88;;
7919;SDS011;18778;47.610;9.776;2023-06-26T14:31:28;6.65;;;6.05;;
7919;SDS011;18778;47.610;9.776;2023-06-26T14:33:54;6.20;;;5.70;;
7919;SDS011;18778;47.610;9.776;2023-06-26T14:36:20;7.63;;;6.30;;
7919;SDS011;18778;47.610;9.776;2023-06-26T14:38:46;6.95;;;6.30;;
7919;SDS011;18778;47.610;9.776;2023-06-26T14:41:12;8.32;;;6.35;;
7919;SDS011;18778;47.610;9.776;2023-06-26T14:43:38;6.47;;;5.88;;
7919;SDS011;18778;47.610;9.776;2023-06-26T14:46:05;6.63;;;6.00;;
7919;SDS011;18778;47.610;9.776;2023-06-26T14:48:31;6.32;;;5.82;;
7919;SDS011;18778;47.610;9.776;2023-06-26T14:50:57;9.23;;;6.22;;
7919;SDS011;18778;47.610;9.776;2023-06-26T14:53:25;6.43;;;5.82;;
7919;SDS011;18778;47.610;9.776;2023-06-26T14:55:51;6.18;;;5.57;;
7919;SDS011;18778;47.610;9.776;2023-06-26T14:58:17;8.38;;;5.57;;
7919;SDS011;18778;47.610;9.776;2023-06-26T15:00:43;6.57;;;5.50;;
7919;SDS011;18778;47.610;9.776;2023-06-26T15:03:09;9.38;;;5.90;;
7919;SDS011;18778;47.610;9.776;2023-06-26T15:05:35;7.47;;;5.88;;
7919;SDS011;18778;47.610;9.776;2023-06-26T15:08:01;6.32;;;5.50;;
7919;SDS011;18778;47.610;9.776;2023-06-26T15:10:27;6.20;;;5.70;;
7919;SDS011;18778;47.610;9.776;2023-06-26T15:12:53;6.68;;;5.95;;
7919;SDS011;18778;47.610;9.776;2023-06-26T15:15:19;6.13;;;5.53;;
7919;SDS011;18778;47.610;9.776;2023-06-26T15:17:45;6.07;;;5.47;;
7919;SDS011;18778;47.610;9.776;2023-06-26T15:20:11;5.57;;;5.07;;
7919;SDS011;18778;47.610;9.776;2023-06-26T15:22:37;5.50;;;5.10;;
7919;SDS011;18778;47.610;9.776;2023-06-26T15:25:04;5.75;;;5.25;;
7919;SDS011;18778;47.610;9.776;2023-06-26T15:27:30;8.23;;;5.53;;
7919;SDS011;18778;47.610;9.776;2023-06-26T15:29:55;7.00;;;5.40;;
7919;SDS011;18778;47.610;9.776;2023-06-26T15:32:21;7.50;;;5.72;;
7919;SDS011;18778;47.610;9.776;2023-06-26T15:34:47;6.35;;;5.65;;